KOSU/OSU METAR and TAF weather

Enter ICAO airport designator
Station Type Date Time Source
KOSU METAR 2020/03/31 09:06 UTC NOAA

KOSU 310906Z AUTO 32004KT 10SM BKN022 03/00 A3001 RMK AO2 T00330000


Station Type Date Time Source
KOSU Decoded METAR 2020/03/31 09:06 UTC NOAA

OHIO STATE UNIVERSITY AIRPORT , OH, United States (KOSU) 40-05N 083-05W 280M
Mar 31, 2020 - 05:06 AM EDT / 2020.03.31 0906 UTC
Wind: from the NW (320 degrees) at 5 MPH (4 KT):0
Visibility: 10 mile(s):0
Sky conditions: mostly cloudy
Temperature: 37.9 F (3.3 C)
Dew Point: 32.0 F (0.0 C)
Relative Humidity: 78%
Pressure (altimeter): 30.01 in. Hg (1016 hPa)
ob: KOSU 310906Z AUTO 32004KT 10SM BKN022 03/00 A3001 RMK AO2 T00330000
cycle: 9

Station Type Date Time Source
KOSU TAF UTC NOAA

Error!

Example: see airport list